Time;durP1;ratioP1;P1;durP2;ratioP2;P2;SDS_P1;SDS_P2;PMS_P1;PMS_P2;Temp;Humidity;BMP_temperature;BMP_pressure;BME280_temperature;BME280_humidity;BME280_pressure;Samples;Min_cycle;Max_cycle;Signal;HPM_P1;HPM_P2
2021/08/03 00:01:03;;;;;;;;;;;;;;;-144.99;96.19;52374.72;5086659;28;20386;-78
2021/08/03 00:03:32;;;;;;;;;;;;;;;-144.99;96.26;52419.56;5102588;28;19962;-79
2021/08/03 00:06:02;;;;;;;;;;;;;;;-144.99;96.31;52354.34;5085825;28;19981;-79
2021/08/03 00:08:29;;;;;;;;;;;;;;;-144.99;96.13;52358.41;5087065;28;19928;-79
2021/08/03 00:10:57;;;;;;;;;;;;;;;-144.99;96.25;52386.94;5086908;28;19924;-79
2021/08/03 00:13:26;;;;;;;;;;;;;;;-144.99;96.40;52395.09;5086832;28;19927;-80
2021/08/03 00:15:57;;;;;;;;;;;;;;;-144.99;96.83;52350.25;5087145;28;20238;-80
2021/08/03 00:18:23;;;;;;;;;;;;;;;-144.99;97.02;52368.59;5091562;28;20019;-77
2021/08/03 00:20:49;;;;;;;;;;;;;;;-144.99;97.23;52374.72;5088767;28;20393;-80
2021/08/03 00:23:16;;;;;;;;;;;;;;;-144.99;97.38;52391.03;5091553;28;19927;-81
2021/08/03 00:25:42;;;;;;;;;;;;;;;-144.99;97.81;52391.03;5090729;28;19982;-80
2021/08/03 00:28:11;;;;;;;;;;;;;;;-144.99;98.06;52338.03;5089104;28;19962;-81
2021/08/03 00:30:38;;;;;;;;;;;;;;;-144.99;98.24;52386.94;5089238;28;20279;-80
2021/08/03 00:33:04;;;;;;;;;;;;;;;-144.99;98.22;52415.47;5091073;28;19924;-81
2021/08/03 00:35:30;;;;;;;;;;;;;;;-144.99;98.19;52360.44;5087570;28;19928;-78
2021/08/03 00:37:57;;;;;;;;;;;;;;;-144.99;98.20;52444.03;5086395;28;19932;-80
2021/08/03 00:40:24;;;;;;;;;;;;;;;-144.99;98.30;52407.31;5089886;28;19928;-80
2021/08/03 00:42:50;;;;;;;;;;;;;;;-144.99;98.35;52407.31;5090625;28;19925;-80
2021/08/03 00:45:18;;;;;;;;;;;;;;;-144.99;98.70;52364.53;5090615;28;19938;-80
2021/08/03 00:47:44;;;;;;;;;;;;;;;-144.99;98.58;52386.94;5090192;28;19968;-79
2021/08/03 00:50:11;;;;;;;;;;;;;;;-144.99;98.58;52407.31;5090294;28;19959;-80
2021/08/03 00:52:37;;;;;;;;;;;;;;;-144.99;98.84;52366.56;5087809;28;19928;-80
2021/08/03 00:55:04;;;;;;;;;;;;;;;-144.99;98.67;52427.72;5106943;28;20379;-82
2021/08/03 00:57:32;;;;;;;;;;;;;;;-144.99;99.13;52386.94;5092238;28;19928;-81
2021/08/03 00:59:58;;;;;;;;;;;;;;;-144.99;98.96;52374.72;5087042;28;20333;-81
2021/08/03 01:02:26;;;;;;;;;;;;;;;-144.99;99.15;52374.72;5098210;28;19924;-81
2021/08/03 01:04:53;;;;;;;;;;;;;;;-144.99;99.20;52382.88;5095615;28;19924;-79
2021/08/03 01:07:23;;;;;;;;;;;;;;;-144.99;99.38;52386.94;5084293;28;19974;-77
2021/08/03 01:09:54;;;;;;;;;;;;;;;-144.99;99.15;52358.41;5085593;28;20200;-79
2021/08/03 01:12:31;;;;;;;;;;;;;;;-144.99;99.36;52370.63;5087411;28;20029;-78
2021/08/03 01:14:59;;;;;;;;;;;;;;;-144.99;99.35;52382.88;5086076;28;19935;-75
2021/08/03 01:17:31;;;;;;;;;;;;;;;-144.99;99.39;52397.13;5093212;28;20005;-76
2021/08/03 01:20:02;;;;;;;;;;;;;;;-144.99;99.25;52374.72;5090260;28;19970;-78
2021/08/03 01:22:40;;;;;;;;;;;;;;;-144.99;99.72;52378.78;5083928;28;20344;-76
2021/08/03 01:25:12;;;;;;;;;;;;;;;-144.99;99.76;52338.03;5085614;28;19931;-77
2021/08/03 01:27:48;;;;;;;;;;;;;;;-144.99;99.77;52362.50;5085979;28;19962;-76
2021/08/03 01:30:15;;;;;;;;;;;;;;;-144.99;99.74;52362.50;5085523;28;19924;-78
2021/08/03 01:32:43;;;;;;;;;;;;;;;-144.99;100.00;52346.19;5085694;28;20287;-74
2021/08/03 01:35:11;;;;;;;;;;;;;;;-144.99;100.00;52399.19;5086968;28;20378;-75
2021/08/03 01:37:37;;;;;;;;;;;;;;;-144.99;100.00;52362.50;5079038;28;19927;-76
2021/08/03 01:40:06;;;;;;;;;;;;;;;-144.99;100.00;52386.94;5087941;28;20283;-76
2021/08/03 01:42:32;;;;;;;;;;;;;;;-144.99;100.00;52393.06;5089707;28;20399;-76
2021/08/03 01:45:00;;;;;;;;;;;;;;;-144.99;100.00;52403.25;5089676;28;19967;-77
2021/08/03 01:47:28;;;;;;;;;;;;;;;-144.99;100.00;52378.78;5088895;28;19964;-76
2021/08/03 01:49:56;;;;;;;;;;;;;;;-144.99;100.00;52419.56;5089197;28;20245;-76
2021/08/03 01:52:22;;;;;;;;;;;;;;;-144.99;100.00;52338.03;5085894;28;19971;-77
2021/08/03 01:54:50;;;;;;;;;;;;;;;-144.99;100.00;52380.84;5091625;28;19931;-78
2021/08/03 01:57:17;;;;;;;;;;;;;;;-144.99;100.00;52372.69;5091485;28;19924;-78
2021/08/03 01:59:44;;;;;;;;;;;;;;;-144.99;100.00;52382.88;5087933;28;19924;-79
2021/08/03 02:02:11;;;;;;;;;;;;;;;-144.99;100.00;52362.50;5097746;28;20400;-77
2021/08/03 02:04:39;;;;;;;;;;;;;;;-144.99;100.00;52362.50;5098006;28;19932;-77
2021/08/03 02:07:06;;;;;;;;;;;;;;;-144.99;100.00;52382.88;5089826;28;19925;-77
2021/08/03 02:09:33;;;;;;;;;;;;;;;-144.99;100.00;52366.56;5090570;28;19924;-77
2021/08/03 02:11:59;;;;;;;;;;;;;;;-144.99;100.00;52378.78;5091611;28;19969;-78
2021/08/03 02:14:25;;;;;;;;;;;;;;;-144.99;100.00;52376.75;5091751;28;20059;-77
2021/08/03 02:16:52;;;;;;;;;;;;;;;-144.99;100.00;52368.59;5095185;28;20410;-81
2021/08/03 02:19:18;;;;;;;;;;;;;;;-144.99;100.00;52376.75;5105171;28;19928;-80
2021/08/03 02:21:46;;;;;;;;;;;;;;;-144.99;100.00;52344.16;5083993;28;20399;-80
2021/08/03 02:24:13;;;;;;;;;;;;;;;-144.99;100.00;52362.50;5100312;28;19928;-80
2021/08/03 02:26:39;;;;;;;;;;;;;;;-144.99;100.00;52384.91;5095708;28;19951;-81
2021/08/03 02:29:06;;;;;;;;;;;;;;;-144.99;100.00;52370.63;5095378;28;20023;-82
2021/08/03 02:31:39;;;;;;;;;;;;;;;-144.99;100.00;52391.03;5109294;22;20354;-76
2021/08/03 02:34:08;;;;;;;;;;;;;;;-144.99;100.00;52346.19;5072277;28;20296;-76
2021/08/03 02:36:38;;;;;;;;;;;;;;;-144.99;100.00;52397.13;5065768;28;19937;-76
2021/08/03 02:39:06;;;;;;;;;;;;;;;-144.99;100.00;52370.63;5071292;28;20364;-76
2021/08/03 02:41:33;;;;;;;;;;;;;;;-144.99;100.00;52391.03;5060035;28;19955;-76
2021/08/03 02:44:01;;;;;;;;;;;;;;;-144.99;100.00;52376.75;5072150;28;20376;-74
2021/08/03 02:46:28;;;;;;;;;;;;;;;-144.99;100.00;52376.75;5071820;28;20306;-74
2021/08/03 02:49:02;;;;;;;;;;;;;;;-144.99;100.00;52403.25;5071001;28;19962;-74
2021/08/03 02:51:30;;;;;;;;;;;;;;;-144.99;100.00;52378.78;5067300;28;19924;-74
2021/08/03 02:53:59;;;;;;;;;;;;;;;-144.99;100.00;52407.31;5072474;28;19962;-75
2021/08/03 02:56:28;;;;;;;;;;;;;;;-144.99;100.00;52399.19;5072893;28;19979;-75
2021/08/03 02:58:56;;;;;;;;;;;;;;;-144.99;100.00;52429.75;5070277;28;19957;-75
2021/08/03 03:01:23;;;;;;;;;;;;;;;-144.99;100.00;52391.03;5070954;28;19967;-75
2021/08/03 03:03:52;;;;;;;;;;;;;;;-144.99;100.00;52366.56;5068603;28;19935;-76
2021/08/03 03:06:20;;;;;;;;;;;;;;;-144.99;100.00;52348.22;5067647;28;19950;-76
2021/08/03 03:08:47;;;;;;;;;;;;;;;-144.99;100.00;52417.53;5067911;28;19973;-75
2021/08/03 03:11:14;;;;;;;;;;;;;;;-144.99;100.00;52333.94;5071426;28;20443;-76
2021/08/03 03:13:46;;;;;;;;;;;;;;;-144.99;100.00;52350.25;5071841;28;19981;-76
2021/08/03 03:16:13;;;;;;;;;;;;;;;-144.99;100.00;52386.94;5069324;28;20187;-76
2021/08/03 03:18:40;;;;;;;;;;;;;;;-144.99;100.00;52378.78;5068595;28;19946;-76
2021/08/03 03:21:07;;;;;;;;;;;;;;;-144.99;100.00;52352.28;5069152;28;20191;-76
2021/08/03 03:23:35;;;;;;;;;;;;;;;-144.99;100.00;52376.75;5071654;28;19943;-75
2021/08/03 03:26:02;;;;;;;;;;;;;;;-144.99;100.00;52333.94;5068989;28;19946;-76
2021/08/03 03:28:31;;;;;;;;;;;;;;;-144.99;100.00;52342.09;5069078;28;19966;-75
2021/08/03 03:30:59;;;;;;;;;;;;;;;-144.99;100.00;52378.78;5069059;28;19926;-75
2021/08/03 03:33:26;;;;;;;;;;;;;;;-144.99;100.00;52395.09;5077620;28;19946;-75
2021/08/03 03:35:54;;;;;;;;;;;;;;;-144.99;100.00;52388.97;5091788;28;19957;-76
2021/08/03 03:38:22;;;;;;;;;;;;;;;-144.99;100.00;52378.78;5088153;28;19973;-77
2021/08/03 03:40:49;;;;;;;;;;;;;;;-144.99;100.00;52384.91;5072823;28;19936;-76
2021/08/03 03:43:17;;;;;;;;;;;;;;;-144.99;100.00;52391.03;5073570;28;19971;-76
2021/08/03 03:45:45;;;;;;;;;;;;;;;-144.99;100.00;52391.03;5068014;28;19964;-76
2021/08/03 03:48:17;;;;;;;;;;;;;;;-144.99;100.00;52364.53;5068520;28;19933;-75
2021/08/03 03:50:45;;;;;;;;;;;;;;;-144.99;100.00;52358.41;5063821;28;20379;-75
2021/08/03 03:53:12;;;;;;;;;;;;;;;-144.99;100.00;52382.88;5075474;28;20027;-76
2021/08/03 03:55:41;;;;;;;;;;;;;;;-144.99;100.00;52325.81;5079764;28;19932;-76
2021/08/03 03:58:08;;;;;;;;;;;;;;;-144.99;100.00;52372.69;5080806;28;19925;-76
2021/08/03 04:00:35;;;;;;;;;;;;;;;-144.99;100.00;52362.50;5069308;28;20367;-76
2021/08/03 04:03:02;;;;;;;;;;;;;;;-144.99;100.00;52366.56;5068550;28;19924;-77
2021/08/03 04:05:30;;;;;;;;;;;;;;;-144.99;100.00;52391.03;5067848;28;19974;-75
2021/08/03 04:07:56;;;;;;;;;;;;;;;-144.99;100.00;52391.03;5067904;28;19925;-76
2021/08/03 04:10:31;;;;;;;;;;;;;;;-144.99;100.00;52350.25;5067435;28;19933;-76
2021/08/03 04:12:57;;;;;;;;;;;;;;;-144.99;100.00;52338.03;5068191;28;19924;-76
2021/08/03 04:15:24;;;;;;;;;;;;;;;-144.99;100.00;52362.50;5067819;28;20399;-76
2021/08/03 04:17:50;;;;;;;;;;;;;;;-144.99;100.00;52362.50;5067049;28;19932;-75
2021/08/03 04:20:16;;;;;;;;;;;;;;;-144.99;100.00;52362.50;5065608;28;19925;-75
2021/08/03 04:22:44;;;;;;;;;;;;;;;-144.99;100.00;52358.41;5057204;28;20335;-75
2021/08/03 04:25:10;;;;;;;;;;;;;;;-144.99;100.00;52407.31;5067595;28;19925;-75
2021/08/03 04:27:37;;;;;;;;;;;;;;;-144.99;100.00;52350.25;5077516;28;19947;-74
2021/08/03 04:30:03;;;;;;;;;;;;;;;-144.99;100.00;52364.53;5071415;28;20094;-74
2021/08/03 04:32:30;;;;;;;;;;;;;;;-144.99;100.00;52388.97;5067182;28;19935;-76
2021/08/03 04:34:57;;;;;;;;;;;;;;;-144.99;100.00;52382.88;5068310;28;19928;-75
2021/08/03 04:37:24;;;;;;;;;;;;;;;-144.99;100.00;52374.72;5066462;28;19958;-76
2021/08/03 04:39:51;;;;;;;;;;;;;;;-144.99;100.00;52366.56;5067657;28;19924;-75
2021/08/03 04:42:18;;;;;;;;;;;;;;;-144.99;100.00;52346.19;5067664;28;19962;-76
2021/08/03 04:44:44;;;;;;;;;;;;;;;-144.99;100.00;52386.94;5068395;28;19928;-76
2021/08/03 04:47:10;;;;;;;;;;;;;;;-144.99;100.00;52370.63;5067392;28;20031;-75
2021/08/03 04:49:37;;;;;;;;;;;;;;;-144.99;100.00;52348.22;5066563;28;19935;-76
2021/08/03 04:52:04;;;;;;;;;;;;;;;-144.99;100.00;52382.88;5064420;28;20388;-76
2021/08/03 04:54:31;;;;;;;;;;;;;;;-144.99;100.00;52384.91;5068074;28;19971;-75
2021/08/03 04:56:58;;;;;;;;;;;;;;;-144.99;100.00;52386.94;5069249;28;19936;-75
2021/08/03 04:59:25;;;;;;;;;;;;;;;-144.99;100.00;52344.16;5065910;28;19924;-75
2021/08/03 05:01:53;;;;;;;;;;;;;;;-144.99;100.00;52388.97;5066661;28;20394;-75
2021/08/03 05:04:19;;;;;;;;;;;;;;;-144.99;100.00;52366.56;5067175;28;19924;-74
2021/08/03 05:06:45;;;;;;;;;;;;;;;-144.99;100.00;52342.09;5067991;28;20530;-77
2021/08/03 05:09:11;;;;;;;;;;;;;;;-144.99;99.97;52376.75;5069959;28;19924;-77
2021/08/03 05:11:38;;;;;;;;;;;;;;;-144.99;99.81;52348.22;5070390;28;19930;-77
2021/08/03 05:14:05;;;;;;;;;;;;;;;-144.99;99.55;52391.03;5071904;28;19928;-77
2021/08/03 05:16:32;;;;;;;;;;;;;;;-144.99;99.67;52354.34;5074116;28;19962;-76
2021/08/03 05:18:58;;;;;;;;;;;;;;;-144.99;99.57;52358.41;5073645;28;19924;-77
2021/08/03 05:21:24;;;;;;;;;;;;;;;-144.99;99.30;52382.88;5062384;28;19932;-77
2021/08/03 05:23:51;;;;;;;;;;;;;;;-144.99;99.10;52374.72;5074286;28;19967;-76
2021/08/03 05:26:17;;;;;;;;;;;;;;;-144.99;99.24;52364.53;5073660;28;19928;-77
2021/08/03 05:28:43;;;;;;;;;;;;;;;-144.99;98.96;52305.41;5073317;28;19932;-77
2021/08/03 05:31:13;;;;;;;;;;;;;;;-144.99;98.92;52397.13;5073537;28;19924;-77
2021/08/03 05:33:39;;;;;;;;;;;;;;;-144.99;98.13;52356.38;5074649;28;19925;-77
2021/08/03 05:36:05;;;;;;;;;;;;;;;-144.99;98.18;52346.19;5073341;28;20122;-77
2021/08/03 05:38:31;;;;;;;;;;;;;;;-144.99;97.95;52333.94;5073622;28;20002;-76
2021/08/03 05:40:58;;;;;;;;;;;;;;;-144.99;97.73;52342.09;5075010;28;19967;-76
2021/08/03 05:43:24;;;;;;;;;;;;;;;-144.99;97.81;52366.56;5073351;28;19970;-74
2021/08/03 05:45:51;;;;;;;;;;;;;;;-144.99;97.64;52374.72;5071428;28;19929;-74
2021/08/03 05:48:18;;;;;;;;;;;;;;;-144.99;97.47;52366.56;5072390;28;19928;-75
2021/08/03 05:50:45;;;;;;;;;;;;;;;-144.99;97.04;52329.88;5067271;28;19935;-75
2021/08/03 05:53:11;;;;;;;;;;;;;;;-144.99;96.56;52340.06;5072472;28;19924;-75
2021/08/03 05:55:37;;;;;;;;;;;;;;;-144.99;95.89;52364.53;5072362;28;19928;-75
2021/08/03 05:58:03;;;;;;;;;;;;;;;-144.99;95.05;52374.72;5071173;28;20260;-74
2021/08/03 06:00:30;;;;;;;;;;;;;;;-144.99;93.91;52346.19;5070427;28;20275;-75
2021/08/03 06:02:56;;;;;;;;;;;;;;;-144.99;92.44;52319.69;5073793;28;19950;-75
2021/08/03 06:05:24;;;;;;;;;;;;;;;-144.99;91.79;52317.66;5074774;28;19925;-76
2021/08/03 06:07:52;;;;;;;;;;;;;;;-144.99;90.31;52317.66;5074592;28;19946;-76
2021/08/03 06:10:18;;;;;;;;;;;;;;;-144.99;89.28;52297.25;5075072;28;20322;-75
2021/08/03 06:12:45;;;;;;;;;;;;;;;-144.99;88.20;52321.72;5082266;28;19948;-76
2021/08/03 06:15:13;;;;;;;;;;;;;;;-144.99;88.05;52329.88;5079104;28;19952;-76
2021/08/03 06:17:40;;;;;;;;;;;;;;;-144.99;86.52;52301.34;5073412;28;19953;-76
2021/08/03 06:20:07;;;;;;;;;;;;;;;-144.99;85.95;52317.66;5073914;28;19947;-76
2021/08/03 06:22:39;;;;;;;;;;;;;;;-144.99;84.98;52280.97;5064168;28;19976;-76
2021/08/03 06:25:05;;;;;;;;;;;;;;;-144.99;83.82;52313.56;5077524;28;19936;-75
2021/08/03 06:27:32;;;;;;;;;;;;;;;-144.99;81.94;52276.88;5084920;28;19924;-75
2021/08/03 06:30:01;;;;;;;;;;;;;;;-144.99;82.07;52309.50;5072987;28;19924;-75
2021/08/03 06:32:27;;;;;;;;;;;;;;;-144.99;81.48;52321.72;5072209;28;20346;-75
2021/08/03 06:34:54;;;;;;;;;;;;;;;-144.99;81.15;52301.34;5071919;28;19975;-76
2021/08/03 06:37:20;;;;;;;;;;;;;;;-144.99;80.99;52289.13;5070672;28;19986;-77
2021/08/03 06:39:48;;;;;;;;;;;;;;;-144.99;79.54;52260.56;5071828;28;19944;-77
2021/08/03 06:42:20;;;;;;;;;;;;;;;-144.99;78.88;52301.34;5073465;28;19934;-79
2021/08/03 06:44:50;;;;;;;;;;;;;;;-144.99;78.17;52329.88;5072409;28;19955;-75
2021/08/03 06:47:21;;;;;;;;;;;;;;;-144.99;77.77;52285.03;5072383;28;19924;-77
2021/08/03 06:49:49;;;;;;;;;;;;;;;-144.99;76.32;52307.47;5070628;28;19963;-75
2021/08/03 06:52:17;;;;;;;;;;;;;;;-144.99;73.86;52260.56;5068570;28;19932;-76
2021/08/03 06:54:47;;;;;;;;;;;;;;;-144.99;72.25;52285.03;5071433;28;19963;-75
2021/08/03 06:57:16;;;;;;;;;;;;;;;-144.99;72.42;52309.50;5071877;28;19932;-76
2021/08/03 06:59:45;;;;;;;;;;;;;;;-144.99;70.32;52291.16;5071501;28;19931;-76
2021/08/03 07:02:13;;;;;;;;;;;;;;;-144.99;71.83;52315.59;5071095;28;19963;-77
2021/08/03 07:04:44;;;;;;;;;;;;;;;-144.99;72.62;52331.91;5062206;28;19959;-77
2021/08/03 07:07:11;;;;;;;;;;;;;;;-144.99;73.34;52321.72;5067348;28;20434;-77
2021/08/03 07:09:41;;;;;;;;;;;;;;;-144.99;73.94;52268.72;5068588;28;20062;-75
2021/08/03 07:12:08;;;;;;;;;;;;;;;-144.99;73.28;52285.03;5068898;28;20375;-76
2021/08/03 07:14:36;;;;;;;;;;;;;;;-144.99;72.66;52301.34;5069177;28;19928;-75
2021/08/03 07:17:04;;;;;;;;;;;;;;;-144.99;72.40;52317.66;5068616;28;19924;-76
2021/08/03 07:19:31;;;;;;;;;;;;;;;-144.99;72.62;52283.00;5068303;28;19968;-75
2021/08/03 07:21:58;;;;;;;;;;;;;;;-144.99;71.69;52297.25;5067020;28;20323;-73
2021/08/03 07:24:24;;;;;;;;;;;;;;;-144.99;71.22;52289.13;5070088;28;20300;-74
2021/08/03 07:26:50;;;;;;;;;;;;;;;-144.99;71.19;52305.41;5069839;28;19932;-73
2021/08/03 07:29:17;;;;;;;;;;;;;;;-144.99;71.48;52289.13;5068842;28;19963;-74
2021/08/03 07:31:44;;;;;;;;;;;;;;;-144.99;71.37;52287.06;5068962;28;19924;-75
2021/08/03 07:34:11;;;;;;;;;;;;;;;-144.99;70.60;52325.81;5069701;28;20002;-74
2021/08/03 07:36:38;;;;;;;;;;;;;;;-144.99;70.96;52297.25;5061108;28;19924;-77
2021/08/03 07:39:05;;;;;;;;;;;;;;;-144.99;70.74;52329.88;5069228;28;20323;-78
2021/08/03 07:41:31;;;;;;;;;;;;;;;-144.99;70.66;52301.34;5069872;28;19924;-75
2021/08/03 07:43:58;;;;;;;;;;;;;;;-144.99;71.94;52289.13;5077383;28;19931;-75
2021/08/03 07:46:24;;;;;;;;;;;;;;;-144.99;71.57;52289.13;5068028;28;19985;-76
2021/08/03 07:48:51;;;;;;;;;;;;;;;-144.99;71.83;52325.81;5067452;28;19991;-76
2021/08/03 07:51:18;;;;;;;;;;;;;;;-144.99;70.96;52327.84;5051951;28;20391;-74
2021/08/03 07:53:46;;;;;;;;;;;;;;;-144.99;71.42;52317.66;5068670;28;20049;-75
2021/08/03 07:56:12;;;;;;;;;;;;;;;-144.99;71.63;52293.19;5068908;28;19987;-74
2021/08/03 07:58:39;;;;;;;;;;;;;;;-144.99;71.37;52301.34;5067982;28;19942;-75
2021/08/03 08:01:05;;;;;;;;;;;;;;;-144.99;70.82;52333.94;5067605;28;19936;-76
2021/08/03 08:03:32;;;;;;;;;;;;;;;-144.99;70.09;52260.56;5068534;28;19949;-75
2021/08/03 08:05:59;;;;;;;;;;;;;;;-144.99;70.74;52272.81;5067004;28;19939;-76
2021/08/03 08:08:26;;;;;;;;;;;;;;;-144.99;70.03;52333.94;5069386;28;19928;-76
2021/08/03 08:10:52;;;;;;;;;;;;;;;-144.99;69.32;52297.25;5066710;28;19962;-77
2021/08/03 08:13:19;;;;;;;;;;;;;;;-144.99;68.51;52329.88;5068242;28;20364;-76
2021/08/03 08:15:45;;;;;;;;;;;;;;;-144.99;68.29;52276.88;5067446;28;19983;-77
2021/08/03 08:18:12;;;;;;;;;;;;;;;-144.99;67.94;52278.91;5069656;28;19924;-78
2021/08/03 08:20:39;;;;;;;;;;;;;;;-144.99;67.95;52295.22;5064872;28;20403;-78
2021/08/03 08:23:07;;;;;;;;;;;;;;;-144.99;68.29;52340.06;5063566;28;19967;-78
2021/08/03 08:25:33;;;;;;;;;;;;;;;-144.99;68.14;52276.88;5068284;28;19983;-76
2021/08/03 08:28:00;;;;;;;;;;;;;;;-144.99;68.30;52329.88;5073753;28;19951;-78
2021/08/03 08:30:27;;;;;;;;;;;;;;;-144.99;67.82;52268.72;5075983;28;19970;-77
2021/08/03 08:32:53;;;;;;;;;;;;;;;-144.99;67.51;52301.34;5115027;22;19931;-76
2021/08/03 08:35:20;;;;;;;;;;;;;;;-144.99;66.71;52309.50;5106770;28;19931;-76
2021/08/03 08:37:47;;;;;;;;;;;;;;;-144.99;66.72;52293.19;5104710;28;20039;-76
2021/08/03 08:40:16;;;;;;;;;;;;;;;-144.99;66.58;52280.97;5110387;28;19949;-76
2021/08/03 08:42:43;;;;;;;;;;;;;;;-144.99;66.36;52280.97;5113039;28;19924;-76
2021/08/03 08:45:09;;;;;;;;;;;;;;;-144.99;66.04;52280.97;5108325;28;19924;-76
2021/08/03 08:47:36;;;;;;;;;;;;;;;-144.99;65.27;52264.66;5106779;28;19934;-76
2021/08/03 08:50:05;;;;;;;;;;;;;;;-144.99;64.92;52260.56;5109746;28;19934;-75
2021/08/03 08:52:33;;;;;;;;;;;;;;;-144.99;64.63;52293.19;5108916;28;19943;-77
2021/08/03 08:55:00;;;;;;;;;;;;;;;-144.99;64.51;52280.97;5111125;28;20030;-76
2021/08/03 08:57:27;;;;;;;;;;;;;;;-144.99;64.07;52293.19;5111113;28;19931;-75
2021/08/03 08:59:54;;;;;;;;;;;;;;;-144.99;64.27;52285.03;5109827;28;19950;-74
2021/08/03 09:02:33;;;;;;;;;;;;;;;-144.99;63.75;52285.03;5110223;28;19935;-75
2021/08/03 09:05:03;;;;;;;;;;;;;;;-144.99;64.36;52289.13;5110352;27;20017;-75
2021/08/03 09:07:29;;;;;;;;;;;;;;;-144.99;62.35;52268.72;5108302;28;19927;-73
2021/08/03 09:09:56;;;;;;;;;;;;;;;-144.99;63.03;52256.50;5109553;28;20463;-77
2021/08/03 09:12:32;;;;;;;;;;;;;;;-144.99;62.18;52293.19;5110445;28;19936;-76
2021/08/03 09:15:00;;;;;;;;;;;;;;;-144.99;59.23;52260.56;5108913;28;19923;-77
2021/08/03 09:17:27;;;;;;;;;;;;;;;-144.99;57.72;52264.66;5109928;28;19931;-76
2021/08/03 09:19:54;;;;;;;;;;;;;;;-144.99;57.78;52236.13;5109829;28;20015;-76
2021/08/03 09:22:23;;;;;;;;;;;;;;;-144.99;56.92;52234.09;5108570;28;19927;-75
2021/08/03 09:24:50;;;;;;;;;;;;;;;-144.99;56.74;52268.72;5111300;28;20003;-76
2021/08/03 09:27:33;;;;;;;;;;;;;;;-144.99;58.36;52283.00;5111200;28;19923;-78
2021/08/03 09:30:00;;;;;;;;;;;;;;;-144.99;59.95;52283.00;5110235;28;19967;-79
2021/08/03 09:32:31;;;;;;;;;;;;;;;-144.99;60.39;52264.66;5112292;28;20346;-77
2021/08/03 09:35:07;;;;;;;;;;;;;;;-144.99;60.76;52264.66;5110641;28;19927;-76
2021/08/03 09:37:34;;;;;;;;;;;;;;;-144.99;59.37;52248.34;5103404;28;19935;-75
2021/08/03 09:40:00;;;;;;;;;;;;;;;-144.99;59.85;52333.94;5111885;28;19928;-78
2021/08/03 09:42:27;;;;;;;;;;;;;;;-144.99;60.15;52248.34;5111562;28;20373;-79
2021/08/03 09:44:54;;;;;;;;;;;;;;;-144.99;60.84;52268.72;5109730;28;19980;-76
2021/08/03 09:47:23;;;;;;;;;;;;;;;-144.99;62.02;52260.56;5109857;28;20465;-77
2021/08/03 09:49:51;;;;;;;;;;;;;;;-144.99;62.41;52244.28;5109183;28;19992;-78
2021/08/03 09:52:18;;;;;;;;;;;;;;;-144.99;63.62;52258.53;5108575;28;20387;-74
2021/08/03 09:54:45;;;;;;;;;;;;;;;-144.99;64.32;52280.97;5111222;28;19930;-76
2021/08/03 09:57:24;;;;;;;;;;;;;;;-144.99;65.31;52268.72;5111231;28;19930;-78
2021/08/03 09:59:51;;;;;;;;;;;;;;;-144.99;65.22;52313.56;5109567;28;19927;-75
2021/08/03 10:02:18;;;;;;;;;;;;;;;-144.99;65.63;52338.03;5110405;28;19931;-78
2021/08/03 10:04:46;;;;;;;;;;;;;;;-144.99;65.65;52250.38;5111779;27;19923;-77
2021/08/03 10:07:13;;;;;;;;;;;;;;;-144.99;65.66;52285.03;5108336;28;19931;-75
2021/08/03 10:09:39;;;;;;;;;;;;;;;-144.99;65.31;52260.56;5108688;28;19924;-78
2021/08/03 10:12:05;;;;;;;;;;;;;;;-144.99;64.96;52268.72;5109073;28;20397;-78
2021/08/03 10:14:32;;;;;;;;;;;;;;;-144.99;64.21;52244.28;5109458;28;19931;-77
2021/08/03 10:16:58;;;;;;;;;;;;;;;-144.99;63.73;52264.66;5108525;28;19927;-77
2021/08/03 10:19:26;;;;;;;;;;;;;;;-144.99;63.39;52236.13;5108626;28;20345;-78
2021/08/03 10:21:59;;;;;;;;;;;;;;;-144.99;63.06;52252.44;5107358;28;19931;-77
2021/08/03 10:24:29;;;;;;;;;;;;;;;-144.99;62.11;52244.28;5109379;28;20504;-78
2021/08/03 10:27:02;;;;;;;;;;;;;;;-144.99;60.89;52268.72;5109480;28;20330;-77
2021/08/03 10:29:29;;;;;;;;;;;;;;;-144.99;59.60;52248.34;5108045;28;20001;-78
2021/08/03 10:31:55;;;;;;;;;;;;;;;-144.99;59.65;52234.09;5108253;28;19924;-76
2021/08/03 10:34:40;;;;;;;;;;;;;;;-144.99;59.32;52215.75;5109489;28;19928;-77
2021/08/03 10:37:07;;;;;;;;;;;;;;;-144.99;59.39;52232.03;5096568;28;19924;-77
2021/08/03 10:39:48;;;;;;;;;;;;;;;-144.99;58.47;52240.19;5107082;28;19924;-77
2021/08/03 10:42:14;;;;;;;;;;;;;;;-144.99;57.64;52213.69;5097278;28;19924;-78
2021/08/03 10:44:46;;;;;;;;;;;;;;;-144.99;56.67;52219.81;5107471;28;19924;-77
2021/08/03 10:47:31;;;;;;;;;;;;;;;-144.99;54.52;52236.13;5107881;28;20046;-76
2021/08/03 10:49:58;;;;;;;;;;;;;;;-144.99;53.37;52211.66;5106830;28;19928;-78
2021/08/03 10:52:43;;;;;;;;;;;;;;;-144.99;52.66;52207.59;5106708;28;19931;-78
2021/08/03 10:55:26;;;;;;;;;;;;;;;-144.99;52.47;52209.63;5108730;28;19924;-74
2021/08/03 10:58:07;;;;;;;;;;;;;;;-144.99;52.59;52179.06;5108458;28;20462;-75
2021/08/03 11:00:40;;;;;;;;;;;;;;;-144.99;51.65;52162.75;5106419;28;20302;-75
2021/08/03 11:03:27;;;;;;;;;;;;;;;-144.99;49.93;52236.13;5108789;28;19927;-78
2021/08/03 11:05:53;;;;;;;;;;;;;;;-144.99;50.46;52211.66;5105062;28;20452;-76
2021/08/03 11:08:38;;;;;;;;;;;;;;;-144.99;50.51;52174.97;5108945;28;19930;-76
2021/08/03 11:11:09;;;;;;;;;;;;;;;-144.99;49.87;52179.06;5106954;28;19930;-78
2021/08/03 11:13:37;;;;;;;;;;;;;;;-144.99;49.79;52158.66;5108948;28;19934;-75
2021/08/03 11:16:03;;;;;;;;;;;;;;;-144.99;49.49;52160.72;5108710;28;19924;-77
2021/08/03 11:18:39;;;;;;;;;;;;;;;-144.99;49.13;52146.44;5108446;28;20060;-77
2021/08/03 11:21:05;;;;;;;;;;;;;;;-144.99;49.60;52152.56;5098964;28;19928;-76
2021/08/03 11:23:50;;;;;;;;;;;;;;;-144.99;48.45;52162.75;5106050;28;19924;-77
2021/08/03 11:26:20;;;;;;;;;;;;;;;-144.99;47.92;52146.44;5108133;28;19923;-76
2021/08/03 11:28:55;;;;;;;;;;;;;;;-144.99;47.10;52179.06;5106984;28;19938;-74
2021/08/03 11:31:21;;;;;;;;;;;;;;;-144.99;47.36;52181.09;5107377;28;19930;-77
2021/08/03 11:33:54;;;;;;;;;;;;;;;-144.99;47.84;52162.75;5107757;28;20403;-74
2021/08/03 11:36:20;;;;;;;;;;;;;;;-144.99;47.96;52150.53;5105741;28;19932;-77
2021/08/03 11:38:47;;;;;;;;;;;;;;;-144.99;47.77;52146.44;5107222;28;19924;-75
2021/08/03 11:41:13;;;;;;;;;;;;;;;-144.99;47.42;52146.44;5107332;28;19981;-77
2021/08/03 11:43:41;;;;;;;;;;;;;;;-144.99;47.60;52150.53;5106970;28;19927;-77
2021/08/03 11:46:07;;;;;;;;;;;;;;;-144.99;47.39;52152.56;5107346;28;19927;-78
2021/08/03 11:48:34;;;;;;;;;;;;;;;-144.99;46.24;52069.00;5107451;28;19931;-76
2021/08/03 11:51:01;;;;;;;;;;;;;;;-144.99;45.89;52179.06;5105157;28;19947;-77
2021/08/03 11:53:27;;;;;;;;;;;;;;;-144.99;44.35;52126.06;5108391;28;19927;-77
2021/08/03 11:55:55;;;;;;;;;;;;;;;-144.99;44.82;52199.44;5107657;28;19924;-78
2021/08/03 11:58:24;;;;;;;;;;;;;;;-144.99;44.86;52154.59;5106616;28;20123;-75
2021/08/03 12:00:53;;;;;;;;;;;;;;;-144.99;44.77;52130.13;5099576;28;19928;-78
2021/08/03 12:03:28;;;;;;;;;;;;;;;-144.99;44.30;52117.91;5106904;28;20410;-78
2021/08/03 12:05:54;;;;;;;;;;;;;;;-144.99;43.80;52156.63;5106015;28;19932;-78
2021/08/03 12:08:21;;;;;;;;;;;;;;;-144.99;44.53;52158.66;5107016;28;19987;-78
2021/08/03 12:10:48;;;;;;;;;;;;;;;-144.99;44.84;52134.22;5105932;28;19931;-78
2021/08/03 12:13:26;;;;;;;;;;;;;;;-144.99;45.15;52126.06;5107229;28;19924;-77
2021/08/03 12:15:55;;;;;;;;;;;;;;;-144.99;44.15;52166.81;5106704;28;20552;-77
2021/08/03 12:18:21;;;;;;;;;;;;;;;-144.99;44.37;52130.13;5107074;28;19931;-78
2021/08/03 12:20:54;;;;;;;;;;;;;;;-144.99;44.39;52199.44;5099451;28;19932;-76
2021/08/03 12:23:21;;;;;;;;;;;;;;;-144.99;44.30;52187.19;5102749;28;19973;-76
2021/08/03 12:25:55;;;;;;;;;;;;;;;-144.99;45.01;52174.97;5106854;28;19963;-78
2021/08/03 12:28:29;;;;;;;;;;;;;;;-144.99;45.21;52174.97;5106775;28;19961;-75